Time,TemperatureF,DewpointF,PressureIn,WindDirection,WindDirectionDegrees,WindSpeedMPH,WindSpeedGustMPH,Humidity,HourlyPrecipIn,Conditions,Clouds,dailyrainin,SoftwareType,DateUTC
2013-07-07 00:05:00,71.9,69.0,29.99,North,355,0.0,0.0,91,0.00,,,0.00,weatherlink.com 1.10,2013-07-07 10:05:00,
2013-07-07 00:23:00,71.9,69.0,29.98,North,355,0.0,0.0,91,0.00,,,0.00,weatherlink.com 1.10,2013-07-07 10:23:00,
2013-07-07 00:41:00,72.0,69.0,29.98,North,355,0.0,0.0,91,0.00,,,0.00,weatherlink.com 1.10,2013-07-07 10:41:00,
2013-07-07 01:00:00,72.1,69.0,29.97,North,355,0.0,0.0,91,0.00,,,0.00,weatherlink.com 1.10,2013-07-07 11:00:00,
2013-07-07 01:18:00,72.1,69.0,29.96,North,355,0.0,0.0,91,0.00,,,0.00,weatherlink.com 1.10,2013-07-07 11:18:00,
2013-07-07 01:36:00,72.2,70.0,29.96,North,355,0.0,0.0,92,0.03,,,0.03,weatherlink.com 1.10,2013-07-07 11:36:00,
2013-07-07 01:54:00,72.2,70.0,29.95,NNW,347,0.0,0.0,93,0.07,,,0.07,weatherlink.com 1.10,2013-07-07 11:54:00,
2013-07-07 02:12:00,72.0,70.0,29.95,NNW,347,0.0,0.0,93,0.07,,,0.07,weatherlink.com 1.10,2013-07-07 12:12:00,
2013-07-07 02:31:00,71.6,69.0,29.95,NNW,347,0.0,0.0,93,0.05,,,0.07,weatherlink.com 1.10,2013-07-07 12:31:00,
2013-07-07 02:49:00,71.1,69.0,29.94,NNW,347,0.0,0.0,93,0.00,,,0.07,weatherlink.com 1.10,2013-07-07 12:49:00,
2013-07-07 03:07:00,70.8,69.0,29.94,NNW,347,0.0,0.0,93,0.00,,,0.07,weatherlink.com 1.10,2013-07-07 13:07:00,
2013-07-07 03:25:00,70.7,69.0,29.93,NNW,347,0.0,0.0,93,0.00,,,0.07,weatherlink.com 1.10,2013-07-07 13:25:00,
2013-07-07 03:43:00,70.5,69.0,29.93,NNW,347,0.0,0.0,94,0.01,,,0.08,weatherlink.com 1.10,2013-07-07 13:43:00,
2013-07-07 04:02:00,70.2,68.0,29.93,NNW,347,0.0,0.0,94,0.01,,,0.08,weatherlink.com 1.10,2013-07-07 14:02:00,
2013-07-07 04:19:00,70.0,68.0,29.93,NNW,347,0.0,0.0,94,0.01,,,0.08,weatherlink.com 1.10,2013-07-07 14:19:00,
2013-07-07 04:38:00,69.9,68.0,29.93,NNW,347,0.0,0.0,94,0.00,,,0.08,weatherlink.com 1.10,2013-07-07 14:38:00,
2013-07-07 04:56:00,69.8,68.0,29.93,NNW,347,0.0,0.0,94,0.00,,,0.08,weatherlink.com 1.10,2013-07-07 14:56:00,
2013-07-07 05:14:00,69.6,68.0,29.93,NNW,347,0.0,0.0,94,0.00,,,0.08,weatherlink.com 1.10,2013-07-07 15:14:00,
2013-07-07 05:32:00,69.3,67.0,29.93,NNW,347,0.0,0.0,94,0.00,,,0.08,weatherlink.com 1.10,2013-07-07 15:32:00,
2013-07-07 05:50:00,69.0,68.0,29.94,NNW,347,0.0,0.0,95,0.00,,,0.08,weatherlink.com 1.10,2013-07-07 15:50:00,
2013-07-07 06:09:00,69.0,68.0,29.94,NNW,347,0.0,0.0,95,0.00,,,0.08,weatherlink.com 1.10,2013-07-07 16:09:00,
2013-07-07 06:27:00,69.2,68.0,29.94,NNW,347,0.0,0.0,95,0.00,,,0.08,weatherlink.com 1.10,2013-07-07 16:27:00,
2013-07-07 06:46:00,70.9,70.0,29.95,NNW,347,0.0,0.0,96,0.00,,,0.08,weatherlink.com 1.10,2013-07-07 16:46:00,
2013-07-07 07:04:00,73.3,71.0,29.95,NNW,347,0.0,0.0,94,0.00,,,0.08,weatherlink.com 1.10,2013-07-07 17:04:00,
2013-07-07 07:22:00,75.2,73.0,29.95,NNW,347,0.0,0.0,92,0.00,,,0.08,weatherlink.com 1.10,2013-07-07 17:22:00,
2013-07-07 07:40:00,76.5,72.0,29.96,North,360,0.0,4.0,85,0.00,,,0.08,weatherlink.com 1.10,2013-07-07 17:40:00,
2013-07-07 07:58:00,77.9,72.0,29.96,NNE,19,0.0,4.0,81,0.00,,,0.08,weatherlink.com 1.10,2013-07-07 17:58:00,
2013-07-07 08:17:00,78.8,71.0,29.96,NNE,18,2.0,4.0,77,0.00,,,0.08,weatherlink.com 1.10,2013-07-07 18:17:00,
2013-07-07 08:34:00,79.6,71.0,29.96,NE,43,4.0,7.0,74,0.00,,,0.08,weatherlink.com 1.10,2013-07-07 18:34:00,
2013-07-07 08:53:00,79.9,72.0,29.96,NE,40,3.0,6.0,76,0.00,,,0.08,weatherlink.com 1.10,2013-07-07 18:53:00,
2013-07-07 09:11:00,80.2,72.0,29.96,NNE,20,5.0,7.0,75,0.00,,,0.08,weatherlink.com 1.10,2013-07-07 19:11:00,
2013-07-07 09:29:00,80.1,71.0,29.96,NNE,24,2.0,9.0,75,0.00,,,0.08,weatherlink.com 1.10,2013-07-07 19:29:00,
2013-07-07 09:48:00,79.7,71.0,29.96,NNE,29,2.0,4.0,75,0.00,,,0.08,weatherlink.com 1.10,2013-07-07 19:48:00,
2013-07-07 10:06:00,80.6,72.0,29.96,NNW,329,7.0,8.0,74,0.00,,,0.08,weatherlink.com 1.10,2013-07-07 20:06:00,
2013-07-07 10:24:00,80.4,71.0,29.96,NNE,16,2.0,7.0,74,0.00,,,0.08,weatherlink.com 1.10,2013-07-07 20:24:00,
2013-07-07 10:42:00,81.3,73.0,29.95,WNW,302,6.0,7.0,75,0.00,,,0.08,weatherlink.com 1.10,2013-07-07 20:42:00,
2013-07-07 11:00:00,81.0,72.0,29.95,NW,310,3.0,8.0,73,0.00,,,0.08,weatherlink.com 1.10,2013-07-07 21:00:00,
2013-07-07 11:18:00,80.9,72.0,29.95,NNE,17,6.0,7.0,74,0.00,,,0.08,weatherlink.com 1.10,2013-07-07 21:18:00,
2013-07-07 11:36:00,81.0,72.0,29.95,North,5,3.0,8.0,74,0.00,,,0.08,weatherlink.com 1.10,2013-07-07 21:36:00,
2013-07-07 11:55:00,80.4,72.0,29.95,East,88,0.0,7.0,76,0.00,,,0.08,weatherlink.com 1.10,2013-07-07 21:55:00,
2013-07-07 12:13:00,81.1,73.0,29.95,North,355,5.0,9.0,76,0.00,,,0.08,weatherlink.com 1.10,2013-07-07 22:13:00,
2013-07-07 12:31:00,81.3,72.0,29.94,NE,43,1.0,9.0,73,0.00,,,0.08,weatherlink.com 1.10,2013-07-07 22:31:00,
2013-07-07 12:50:00,81.7,73.0,29.94,NNW,330,4.0,7.0,75,0.00,,,0.08,weatherlink.com 1.10,2013-07-07 22:50:00,
2013-07-07 13:08:00,81.6,73.0,29.93,East,88,2.0,9.0,76,0.00,,,0.08,weatherlink.com 1.10,2013-07-07 23:08:00,
2013-07-07 13:26:00,81.5,73.0,29.93,NNE,13,3.0,9.0,75,0.00,,,0.08,weatherlink.com 1.10,2013-07-07 23:26:00,
2013-07-07 13:47:00,82.1,72.0,29.93,NNE,28,3.0,9.0,72,0.00,,,0.08,weatherlink.com 1.10,2013-07-07 23:47:00,
2013-07-07 14:05:00,83.8,72.0,29.93,NE,51,2.0,8.0,67,0.00,,,0.08,weatherlink.com 1.10,2013-07-08 00:05:00,
2013-07-07 14:24:00,82.6,72.0,29.92,NNE,32,2.0,8.0,70,0.00,,,0.08,weatherlink.com 1.10,2013-07-08 00:24:00,
2013-07-07 14:42:00,83.4,73.0,29.92,ENE,57,2.0,7.0,70,0.00,,,0.08,weatherlink.com 1.10,2013-07-08 00:42:00,
2013-07-07 14:59:00,82.6,72.0,29.91,NE,36,3.0,9.0,71,0.00,,,0.08,weatherlink.com 1.10,2013-07-08 00:59:00,
2013-07-07 15:18:00,81.4,72.0,29.91,NNE,22,3.0,10.0,74,0.00,,,0.08,weatherlink.com 1.10,2013-07-08 01:18:00,
2013-07-07 15:36:00,80.9,72.0,29.91,NNW,344,3.0,9.0,75,0.00,,,0.08,weatherlink.com 1.10,2013-07-08 01:36:00,
2013-07-07 15:54:00,80.7,72.0,29.91,NNE,19,1.0,7.0,76,0.00,,,0.08,weatherlink.com 1.10,2013-07-08 01:54:00,
2013-07-07 16:12:00,80.5,72.0,29.91,East,84,1.0,7.0,75,0.00,,,0.08,weatherlink.com 1.10,2013-07-08 02:12:00,
2013-07-07 16:31:00,80.0,72.0,29.90,NNE,30,0.0,6.0,77,0.00,,,0.08,weatherlink.com 1.10,2013-07-08 02:31:00,
2013-07-07 16:49:00,79.9,72.0,29.90,NNE,26,2.0,7.0,77,0.00,,,0.08,weatherlink.com 1.10,2013-07-08 02:49:00,
2013-07-07 17:07:00,79.9,72.0,29.90,North,5,5.0,9.0,77,0.00,,,0.08,weatherlink.com 1.10,2013-07-08 03:07:00,
2013-07-07 17:25:00,79.6,72.0,29.90,NNE,27,1.0,7.0,78,0.00,,,0.08,weatherlink.com 1.10,2013-07-08 03:25:00,
2013-07-07 17:43:00,79.3,72.0,29.90,East,82,0.0,5.0,78,0.00,,,0.08,weatherlink.com 1.10,2013-07-08 03:43:00,
2013-07-07 18:01:00,79.1,72.0,29.91,ENE,65,0.0,3.0,79,0.00,,,0.08,weatherlink.com 1.10,2013-07-08 04:01:00,
2013-07-07 18:20:00,78.9,73.0,29.91,NE,49,0.0,5.0,81,0.00,,,0.08,weatherlink.com 1.10,2013-07-08 04:20:00,
2013-07-07 18:38:00,78.6,72.0,29.92,NNE,20,0.0,5.0,81,0.00,,,0.08,weatherlink.com 1.10,2013-07-08 04:38:00,
2013-07-07 18:56:00,78.5,72.0,29.92,East,98,0.0,4.0,80,0.00,,,0.08,weatherlink.com 1.10,2013-07-08 04:56:00,
2013-07-07 19:14:00,77.9,72.0,29.93,ENE,76,0.0,0.0,81,0.00,,,0.08,weatherlink.com 1.10,2013-07-08 05:14:00,
2013-07-07 19:33:00,77.6,72.0,29.93,ESE,113,0.0,0.0,82,0.00,,,0.08,weatherlink.com 1.10,2013-07-08 05:33:00,
2013-07-07 19:51:00,77.4,72.0,29.93,ESE,113,0.0,0.0,83,0.00,,,0.08,weatherlink.com 1.10,2013-07-08 05:51:00,
2013-07-07 20:09:00,77.3,71.0,29.94,NE,56,0.0,4.0,82,0.00,,,0.08,weatherlink.com 1.10,2013-07-08 06:09:00,
2013-07-07 20:27:00,77.1,71.0,29.94,SSE,161,0.0,3.0,81,0.00,,,0.08,weatherlink.com 1.10,2013-07-08 06:27:00,
2013-07-07 20:46:00,76.8,71.0,29.95,ESE,113,0.0,0.0,82,0.00,,,0.08,weatherlink.com 1.10,2013-07-08 06:46:00,
2013-07-07 21:04:00,76.7,71.0,29.95,ENE,74,0.0,4.0,83,0.00,,,0.08,weatherlink.com 1.10,2013-07-08 07:04:00,
2013-07-07 21:22:00,76.9,71.0,29.95,East,82,0.0,0.0,83,0.00,,,0.08,weatherlink.com 1.10,2013-07-08 07:22:00,
2013-07-07 21:40:00,76.8,71.0,29.96,East,92,0.0,1.0,82,0.00,,,0.08,weatherlink.com 1.10,2013-07-08 07:40:00,
2013-07-07 21:58:00,76.6,71.0,29.96,ENE,78,0.0,0.0,83,0.00,,,0.08,weatherlink.com 1.10,2013-07-08 07:58:00,
2013-07-07 22:17:00,76.4,71.0,29.96,ENE,78,0.0,0.0,83,0.00,,,0.08,weatherlink.com 1.10,2013-07-08 08:17:00,
2013-07-07 22:35:00,76.5,71.0,29.97,SE,139,0.0,3.0,82,0.00,,,0.08,weatherlink.com 1.10,2013-07-08 08:35:00,
2013-07-07 22:53:00,76.6,71.0,29.96,East,96,1.0,2.0,83,0.00,,,0.08,weatherlink.com 1.10,2013-07-08 08:53:00,
2013-07-07 23:11:00,76.6,71.0,29.96,ENE,69,0.0,3.0,84,0.00,,,0.08,weatherlink.com 1.10,2013-07-08 09:11:00,
2013-07-07 23:29:00,76.6,71.0,29.96,East,91,0.0,2.0,83,0.00,,,0.08,weatherlink.com 1.10,2013-07-08 09:29:00,
2013-07-07 23:48:00,76.5,71.0,29.96,ESE,103,0.0,1.0,84,0.00,,,0.08,weatherlink.com 1.10,2013-07-08 09:48:00,